logo
Search for airport 
image banner adimage banner adimage banner ad
image banner ad

ED1716 - Bad Saarow Helios Klinikum

Located in Bad Saarow, Germany

ICAO - , IATA -

Data provided by Airmate  

General information

Coordinates: N52°17'4" E14°3'37"
Elevation is 154 feet MSL.
 
View others Airports in Brandenburg

Operational data

Special qualification required
Current time UTC:
Current local time:
Weather at : EDDB - Berlin Brandenburg ( 39 km )
METAR: EDDB 161950Z AUTO 28003KT 230V340 9999 VCTS FEW025 FEW///CB 18/17 Q1013 RESHRA
TAF: TAF EDDB 161700Z 1618/1718 24007KT CAVOK PROB30 TEMPO 1618/1621 25015G25KT SHRA SCT040CB BECMG 1706/1708 24012KT TEMPO 1710/1715 26015G25KT
View NOTAMs / SUP AIP / TFR affecting this airport [VIEW]
Communications frequencies: [VIEW]

Runways:

Airport contact information

Address: Bad Saarow Germany

Satellite view of ED1716